createdAt,value
2022-10-17T00:01:44.391Z,99.90
2022-10-17T00:04:11.396Z,99.90
2022-10-17T00:06:38.395Z,99.90
2022-10-17T00:09:05.455Z,99.90
2022-10-17T00:11:32.492Z,99.90
2022-10-17T00:13:59.497Z,99.90
2022-10-17T00:16:29.469Z,99.90
2022-10-17T00:18:57.488Z,99.30
2022-10-17T00:21:24.997Z,98.60
2022-10-17T00:23:53.647Z,98.00
2022-10-17T00:26:21.041Z,97.30
2022-10-17T00:28:49.373Z,96.80
2022-10-17T00:31:18.396Z,96.50
2022-10-17T00:33:46.061Z,96.10
2022-10-17T00:36:18.894Z,95.70
2022-10-17T00:38:47.572Z,95.40
2022-10-17T00:41:17.366Z,95.10
2022-10-17T00:43:52.189Z,94.80
2022-10-17T00:46:19.318Z,94.40
2022-10-17T00:48:47.629Z,94.20
2022-10-17T00:51:15.693Z,94.00
2022-10-17T00:53:43.132Z,93.90
2022-10-17T00:56:10.523Z,93.70
2022-10-17T00:58:37.570Z,93.60
2022-10-17T01:01:05.531Z,93.40
2022-10-17T01:03:32.622Z,93.30
2022-10-17T01:05:59.823Z,93.20
2022-10-17T01:08:27.375Z,93.10
2022-10-17T01:11:16.112Z,93.00
2022-10-17T01:13:50.907Z,92.80
2022-10-17T01:16:49.124Z,92.80
2022-10-17T01:19:26.698Z,92.80
2022-10-17T01:22:19.306Z,92.70
2022-10-17T01:24:49.285Z,92.70
2022-10-17T01:27:37.975Z,92.80
2022-10-17T01:30:14.539Z,92.90
2022-10-17T01:32:47.541Z,93.00
2022-10-17T01:35:53.285Z,93.10
2022-10-17T01:38:49.128Z,93.10
2022-10-17T01:41:38.137Z,93.10
2022-10-17T01:44:18.112Z,93.10
2022-10-17T01:46:50.533Z,93.10
2022-10-17T01:49:22.232Z,93.20
2022-10-17T01:52:03.075Z,93.30
2022-10-17T01:54:41.086Z,93.40
2022-10-17T01:57:16.472Z,93.50
2022-10-17T01:59:48.626Z,93.60
2022-10-17T02:02:19.026Z,93.70
2022-10-17T02:04:48.561Z,93.80
2022-10-17T02:07:15.621Z,93.80
2022-10-17T02:09:43.048Z,93.80
2022-10-17T02:12:46.326Z,93.90
2022-10-17T02:15:50.017Z,93.80
2022-10-17T02:18:35.804Z,93.80
2022-10-17T02:21:36.999Z,94.20
2022-10-17T02:24:17.797Z,93.90
2022-10-17T02:27:05.594Z,93.90
2022-10-17T02:29:59.244Z,94.00
2022-10-17T02:32:45.465Z,94.10
2022-10-17T02:35:16.985Z,94.10
2022-10-17T02:37:47.558Z,94.10
2022-10-17T02:40:17.052Z,94.10
2022-10-17T02:42:46.189Z,94.00
2022-10-17T02:45:14.759Z,94.00
2022-10-17T02:47:47.924Z,94.00
2022-10-17T02:50:15.214Z,94.00
2022-10-17T02:52:55.970Z,94.00
2022-10-17T02:55:30.203Z,94.00
2022-10-17T02:58:06.748Z,94.10
2022-10-17T03:00:39.597Z,94.10
2022-10-17T03:03:28.052Z,94.10
2022-10-17T03:05:55.207Z,94.10
2022-10-17T03:08:25.199Z,94.20
2022-10-17T03:10:52.345Z,94.20
2022-10-17T03:13:20.644Z,94.30
2022-10-17T03:15:47.809Z,94.40
2022-10-17T03:18:14.860Z,94.60
2022-10-17T03:20:42.025Z,94.70
2022-10-17T03:23:08.988Z,94.90
2022-10-17T03:25:36.823Z,95.00
2022-10-17T03:28:05.520Z,95.20
2022-10-17T03:30:33.471Z,95.20
2022-10-17T03:33:00.961Z,95.40
2022-10-17T03:35:28.310Z,95.40
2022-10-17T03:37:56.233Z,95.50
2022-10-17T03:40:24.795Z,95.60
2022-10-17T03:42:52.481Z,95.70
2022-10-17T03:45:19.433Z,95.90
2022-10-17T03:47:48.041Z,95.90
2022-10-17T03:50:15.662Z,96.00
2022-10-17T03:52:48.387Z,96.10
2022-10-17T03:55:16.379Z,96.10
2022-10-17T03:57:45.489Z,96.20
2022-10-17T04:00:14.337Z,96.20
2022-10-17T04:02:41.525Z,96.20
2022-10-17T04:05:12.795Z,96.10
2022-10-17T04:07:40.849Z,96.00
2022-10-17T04:10:09.231Z,95.80
2022-10-17T04:12:36.308Z,95.60
2022-10-17T04:15:03.667Z,95.40
2022-10-17T04:17:35.759Z,95.70
2022-10-17T04:20:05.837Z,95.40
2022-10-17T04:22:32.845Z,95.40
2022-10-17T04:24:59.817Z,95.40
2022-10-17T04:27:35.178Z,95.50
2022-10-17T04:30:02.202Z,95.60
2022-10-17T04:32:33.222Z,95.70
2022-10-17T04:35:12.015Z,95.70
2022-10-17T04:37:42.604Z,95.80
2022-10-17T04:40:16.487Z,95.80
2022-10-17T04:42:43.769Z,95.80
2022-10-17T04:45:13.518Z,95.90
2022-10-17T04:47:41.396Z,95.90
2022-10-17T04:50:08.689Z,95.90
2022-10-17T04:52:39.092Z,96.00
2022-10-17T04:55:08.365Z,96.00
2022-10-17T04:57:36.156Z,96.00
2022-10-17T05:00:13.956Z,96.10
2022-10-17T05:02:47.540Z,96.10
2022-10-17T05:05:15.403Z,96.10
2022-10-17T05:07:44.551Z,96.20
2022-10-17T05:10:15.652Z,96.10
2022-10-17T05:12:47.705Z,96.20
2022-10-17T05:15:17.937Z,96.20
2022-10-17T05:17:44.927Z,96.20
2022-10-17T05:20:12.737Z,96.20
2022-10-17T05:22:42.092Z,96.30
2022-10-17T05:25:10.931Z,96.40
2022-10-17T05:27:38.294Z,96.50
2022-10-17T05:30:06.382Z,96.60
2022-10-17T05:32:36.679Z,96.70
2022-10-17T05:35:04.435Z,96.70
2022-10-17T05:37:32.723Z,96.60
2022-10-17T05:40:01.209Z,96.70
2022-10-17T05:42:30.021Z,96.60
2022-10-17T05:44:58.388Z,96.50
2022-10-17T05:47:26.571Z,96.50
2022-10-17T05:49:53.706Z,96.40
2022-10-17T05:52:27.034Z,96.30
2022-10-17T05:55:04.084Z,96.30
2022-10-17T05:57:31.785Z,96.20
2022-10-17T06:00:00.884Z,96.10
2022-10-17T06:02:29.585Z,96.00
2022-10-17T06:04:56.787Z,95.90
2022-10-17T06:07:24.451Z,95.80
2022-10-17T06:09:52.542Z,95.70
2022-10-17T06:12:19.887Z,95.50
2022-10-17T06:14:47.173Z,95.30
2022-10-17T06:17:16.381Z,95.00
2022-10-17T06:19:44.979Z,94.60
2022-10-17T06:22:14.521Z,94.30
2022-10-17T06:24:42.624Z,93.70
2022-10-17T06:27:11.969Z,92.90
2022-10-17T06:29:41.631Z,92.10
2022-10-17T06:32:12.555Z,91.40
2022-10-17T06:34:43.441Z,90.90
2022-10-17T06:37:10.969Z,90.40
2022-10-17T06:39:39.915Z,90.00
2022-10-17T06:42:20.239Z,89.10
2022-10-17T06:45:08.647Z,88.10
2022-10-17T06:47:53.591Z,87.10
2022-10-17T06:50:40.803Z,85.90
2022-10-17T06:53:21.852Z,84.60
2022-10-17T06:56:09.344Z,83.60
2022-10-17T06:59:15.762Z,82.50
2022-10-17T07:01:50.760Z,81.90
2022-10-17T07:04:17.805Z,82.00
2022-10-17T07:06:44.787Z,82.30
2022-10-17T07:09:17.147Z,82.80
2022-10-17T07:11:44.777Z,83.40
2022-10-17T07:14:11.745Z,83.80
2022-10-17T07:16:38.995Z,83.90
2022-10-17T07:19:13.189Z,83.50
2022-10-17T07:21:40.276Z,82.20
2022-10-17T07:24:09.472Z,79.90
2022-10-17T07:26:37.389Z,78.00
2022-10-17T07:29:06.476Z,76.10
2022-10-17T07:31:53.880Z,73.90
2022-10-17T07:34:21.148Z,71.50
2022-10-17T07:36:49.469Z,69.10
2022-10-17T07:39:16.730Z,67.00
2022-10-17T07:41:45.792Z,64.60
2022-10-17T07:44:12.856Z,62.50
2022-10-17T07:46:45.108Z,59.90
2022-10-17T07:49:12.101Z,58.40
2022-10-17T07:51:40.828Z,56.80
2022-10-17T07:54:07.830Z,55.30
2022-10-17T07:56:34.747Z,53.90
2022-10-17T07:59:03.957Z,52.80
2022-10-17T08:01:33.799Z,51.40
2022-10-17T08:04:00.825Z,50.30
2022-10-17T08:06:27.761Z,49.40
2022-10-17T08:08:55.645Z,48.40
2022-10-17T08:11:23.256Z,47.40
2022-10-17T08:13:50.271Z,47.00
2022-10-17T08:16:17.178Z,46.20
2022-10-17T08:18:44.181Z,45.30
2022-10-17T08:21:13.071Z,44.80
2022-10-17T08:23:40.186Z,44.30
2022-10-17T08:26:10.649Z,44.10
2022-10-17T08:28:40.439Z,44.10
2022-10-17T08:31:13.787Z,43.90
2022-10-17T08:33:42.899Z,43.60
2022-10-17T08:36:12.292Z,43.20
2022-10-17T08:38:43.019Z,43.30
2022-10-17T08:41:31.632Z,43.60
2022-10-17T08:44:39.851Z,43.40
2022-10-17T08:47:12.564Z,43.70
2022-10-17T08:49:47.073Z,44.20
2022-10-17T08:52:29.902Z,44.30
2022-10-17T08:54:57.077Z,44.30
2022-10-17T08:57:24.078Z,45.20
2022-10-17T08:59:53.433Z,45.80
2022-10-17T09:02:41.500Z,46.50
2022-10-17T09:05:35.424Z,47.10
2022-10-17T09:08:29.410Z,47.80
2022-10-17T09:11:00.466Z,47.90
2022-10-17T09:13:42.563Z,47.90
2022-10-17T09:16:24.625Z,47.80
2022-10-17T09:19:08.705Z,48.20
2022-10-17T09:21:50.994Z,48.40
2022-10-17T09:24:42.349Z,48.10
2022-10-17T09:27:24.302Z,46.70
2022-10-17T09:29:58.693Z,45.80
2022-10-17T09:32:26.142Z,45.30
2022-10-17T09:34:54.055Z,45.40
2022-10-17T09:37:29.771Z,45.10
2022-10-17T09:39:56.753Z,43.70
2022-10-17T09:42:26.972Z,43.40
2022-10-17T09:45:11.027Z,43.30
2022-10-17T09:48:01.871Z,43.10
2022-10-17T09:50:31.424Z,43.10
2022-10-17T09:53:34.470Z,43.00
2022-10-17T09:56:11.729Z,43.40
2022-10-17T09:58:47.833Z,44.80
2022-10-17T10:01:24.150Z,44.40
2022-10-17T10:04:10.094Z,44.60
2022-10-17T10:06:37.311Z,43.30
2022-10-17T10:09:06.833Z,43.30
2022-10-17T10:12:17.462Z,43.20
2022-10-17T10:14:47.237Z,42.70
2022-10-17T10:17:32.203Z,43.20
2022-10-17T10:20:00.001Z,42.70
2022-10-17T10:22:27.578Z,42.90
2022-10-17T10:25:27.285Z,42.40
2022-10-17T10:27:56.374Z,42.40
2022-10-17T10:30:30.425Z,42.30
2022-10-17T10:33:00.285Z,41.70
2022-10-17T10:35:36.281Z,41.90
2022-10-17T10:38:10.653Z,41.50
2022-10-17T10:40:53.547Z,41.40
2022-10-17T10:43:33.667Z,41.30
2022-10-17T10:46:01.398Z,41.10
2022-10-17T10:48:36.360Z,41.20
2022-10-17T10:51:17.076Z,41.50
2022-10-17T10:53:57.757Z,41.90
2022-10-17T10:56:30.806Z,40.80
2022-10-17T10:59:12.459Z,40.90
2022-10-17T11:01:45.559Z,41.00
2022-10-17T11:04:21.608Z,41.30
2022-10-17T11:06:52.473Z,41.80
2022-10-17T11:09:45.168Z,41.30
2022-10-17T11:12:17.744Z,41.80
2022-10-17T11:14:47.427Z,41.00
2022-10-17T11:17:20.006Z,42.10
2022-10-17T11:20:02.888Z,42.90
2022-10-17T11:23:10.054Z,42.80
2022-10-17T11:25:39.557Z,42.10
2022-10-17T11:28:21.697Z,42.20
2022-10-17T11:30:55.403Z,40.70
2022-10-17T11:33:26.222Z,41.20
2022-10-17T11:36:00.098Z,42.00
2022-10-17T11:38:42.029Z,42.10
2022-10-17T11:41:13.905Z,42.10
2022-10-17T11:44:22.192Z,42.10
2022-10-17T11:46:57.384Z,42.10
2022-10-17T11:49:36.920Z,42.40
2022-10-17T11:52:55.471Z,41.80
2022-10-17T11:55:31.384Z,40.70
2022-10-17T11:58:16.538Z,41.00
2022-10-17T12:00:49.061Z,40.20
2022-10-17T12:03:38.216Z,40.40
2022-10-17T12:06:43.296Z,40.30
2022-10-17T12:09:16.190Z,40.90
2022-10-17T12:12:00.818Z,41.30
2022-10-17T12:14:35.392Z,41.70
2022-10-17T12:17:03.857Z,42.20
2022-10-17T12:19:36.627Z,42.70
2022-10-17T12:22:21.019Z,43.20
2022-10-17T12:25:01.756Z,43.80
2022-10-17T12:27:46.159Z,43.50
2022-10-17T12:30:13.544Z,43.50
2022-10-17T12:33:22.662Z,43.30
2022-10-17T12:35:51.994Z,43.00
2022-10-17T12:38:18.895Z,43.20
2022-10-17T12:40:50.550Z,42.00
2022-10-17T12:43:17.419Z,41.20
2022-10-17T12:45:57.224Z,41.10
2022-10-17T12:48:42.161Z,40.90
2022-10-17T12:54:14.904Z,42.50
2022-10-17T12:56:43.427Z,43.00
2022-10-17T12:59:18.229Z,43.20
2022-10-17T13:01:49.062Z,43.60
2022-10-17T13:04:16.810Z,43.70
2022-10-17T13:06:50.096Z,44.00
2022-10-17T13:09:33.225Z,43.30
2022-10-17T13:12:04.376Z,43.20
2022-10-17T13:14:33.336Z,43.30
2022-10-17T13:17:05.245Z,43.40
2022-10-17T13:19:42.524Z,43.00
2022-10-17T13:22:26.112Z,42.40
2022-10-17T13:25:07.365Z,41.60
2022-10-17T13:27:36.264Z,41.60
2022-10-17T13:30:21.246Z,42.50
2022-10-17T13:32:48.699Z,42.80
2022-10-17T13:38:29.396Z,44.20
2022-10-17T13:41:05.896Z,44.60
2022-10-17T13:43:39.058Z,44.20
2022-10-17T13:46:32.479Z,43.80
2022-10-17T13:48:54.024Z,43.10
2022-10-17T13:51:21.045Z,42.80
2022-10-17T13:53:48.040Z,42.50
2022-10-17T13:56:34.459Z,42.80
2022-10-17T13:59:08.151Z,43.80
2022-10-17T14:01:37.236Z,44.50
2022-10-17T14:04:19.581Z,44.80
2022-10-17T14:06:51.115Z,45.50
2022-10-17T14:09:30.596Z,46.00
2022-10-17T14:12:03.569Z,46.10
2022-10-17T14:14:46.164Z,46.70
2022-10-17T14:17:24.513Z,47.00
2022-10-17T14:20:14.183Z,47.60
2022-10-17T14:22:44.590Z,47.40
2022-10-17T14:25:32.023Z,47.80
2022-10-17T14:28:08.026Z,48.20
2022-10-17T14:30:57.444Z,48.50
2022-10-17T14:33:27.138Z,48.50
2022-10-17T14:35:56.667Z,48.70
2022-10-17T14:38:24.448Z,48.90
2022-10-17T14:41:00.380Z,49.00
2022-10-17T14:43:36.804Z,49.30
2022-10-17T14:46:03.999Z,49.50
2022-10-17T14:48:32.120Z,49.50
2022-10-17T14:51:12.587Z,49.70
2022-10-17T14:53:40.550Z,50.20
2022-10-17T14:56:43.318Z,50.40
2022-10-17T14:59:13.792Z,50.80
2022-10-17T15:01:45.190Z,51.50
2022-10-17T15:04:12.188Z,52.10
2022-10-17T15:06:40.602Z,52.70
2022-10-17T15:09:07.687Z,53.40
2022-10-17T15:11:34.636Z,54.00
2022-10-17T15:14:01.558Z,54.90
2022-10-17T15:16:32.109Z,55.90
2022-10-17T15:18:59.075Z,57.20
2022-10-17T15:21:38.451Z,57.70
2022-10-17T15:24:08.918Z,58.20
2022-10-17T15:26:36.011Z,58.90
2022-10-17T15:29:03.402Z,59.60
2022-10-17T15:31:33.608Z,60.10
2022-10-17T15:34:00.524Z,60.40
2022-10-17T15:36:55.194Z,60.60
2022-10-17T15:39:22.216Z,61.10
2022-10-17T15:41:49.179Z,61.70
2022-10-17T15:44:16.641Z,62.60
2022-10-17T15:46:44.255Z,62.90
2022-10-17T15:49:18.566Z,63.20
2022-10-17T15:51:46.058Z,63.90
2022-10-17T15:56:51.564Z,64.50
2022-10-17T15:59:22.853Z,64.80
2022-10-17T16:01:49.954Z,64.90
2022-10-17T16:04:18.449Z,65.10
2022-10-17T16:06:45.449Z,65.50
2022-10-17T16:09:12.543Z,66.90
2022-10-17T16:11:44.347Z,66.50
2022-10-17T16:14:16.294Z,67.00
2022-10-17T16:16:44.306Z,67.60
2022-10-17T16:19:11.354Z,68.00
2022-10-17T16:21:40.407Z,68.50
2022-10-17T16:24:11.880Z,69.00
2022-10-17T16:26:42.515Z,69.50
2022-10-17T16:29:10.183Z,70.10
2022-10-17T16:31:42.401Z,70.50
2022-10-17T16:34:14.519Z,71.00
2022-10-17T16:36:42.012Z,71.30
2022-10-17T16:39:09.124Z,71.70
2022-10-17T16:41:38.418Z,72.10
2022-10-17T16:44:08.156Z,72.70
2022-10-17T16:46:37.392Z,73.10
2022-10-17T16:49:05.494Z,73.40
2022-10-17T16:51:33.820Z,73.80
2022-10-17T16:54:00.796Z,74.90
2022-10-17T16:56:31.664Z,74.50
2022-10-17T16:59:00.030Z,74.90
2022-10-17T17:01:29.372Z,75.10
2022-10-17T17:03:56.948Z,75.50
2022-10-17T17:06:26.825Z,75.80
2022-10-17T17:08:54.623Z,76.30
2022-10-17T17:11:24.540Z,76.50
2022-10-17T17:13:52.186Z,76.70
2022-10-17T17:16:21.651Z,76.80
2022-10-17T17:18:51.382Z,77.10
2022-10-17T17:21:18.448Z,77.30
2022-10-17T17:23:45.476Z,77.40
2022-10-17T17:26:18.214Z,77.60
2022-10-17T17:28:45.655Z,77.80
2022-10-17T17:31:24.387Z,77.80
2022-10-17T17:33:52.480Z,78.10
2022-10-17T17:36:23.093Z,78.30
2022-10-17T17:38:51.297Z,78.50
2022-10-17T17:41:19.527Z,78.70
2022-10-17T17:43:47.582Z,79.10
2022-10-17T17:46:16.737Z,79.30
2022-10-17T17:48:45.762Z,80.30
2022-10-17T17:51:16.000Z,79.80
2022-10-17T17:53:42.940Z,80.00
2022-10-17T17:56:15.185Z,80.20
2022-10-17T17:58:45.663Z,80.50
2022-10-17T18:01:20.656Z,80.70
2022-10-17T18:03:48.952Z,80.90
2022-10-17T18:06:16.482Z,81.10
2022-10-17T18:08:49.304Z,81.40
2022-10-17T18:11:18.414Z,81.70
2022-10-17T18:13:48.278Z,81.70
2022-10-17T18:16:16.798Z,82.10
2022-10-17T18:18:46.762Z,82.30
2022-10-17T18:21:14.140Z,82.60
2022-10-17T18:23:43.353Z,82.80
2022-10-17T18:26:10.961Z,83.00
2022-10-17T18:28:43.096Z,83.00
2022-10-17T18:31:28.242Z,83.20
2022-10-17T18:34:00.013Z,83.50
2022-10-17T18:36:28.653Z,83.40
2022-10-17T18:38:56.549Z,83.60
2022-10-17T18:41:25.741Z,83.60
2022-10-17T18:43:54.825Z,83.60
2022-10-17T18:46:24.280Z,83.60
2022-10-17T18:48:51.627Z,83.60
2022-10-17T18:51:21.055Z,83.60
2022-10-17T18:53:51.393Z,83.60
2022-10-17T18:56:19.739Z,83.60
2022-10-17T18:58:47.485Z,83.60
2022-10-17T19:01:20.315Z,83.70
2022-10-17T19:03:48.704Z,83.80
2022-10-17T19:06:18.105Z,83.90
2022-10-17T19:08:45.251Z,84.00
2022-10-17T19:11:14.842Z,84.10
2022-10-17T19:13:43.706Z,84.10
2022-10-17T19:16:13.239Z,84.00
2022-10-17T19:18:40.597Z,83.90
2022-10-17T19:21:09.720Z,84.00
2022-10-17T19:23:37.645Z,84.00
2022-10-17T19:26:06.745Z,83.90
2022-10-17T19:28:34.671Z,83.90
2022-10-17T19:31:01.963Z,83.80
2022-10-17T19:36:04.249Z,84.00
2022-10-17T19:38:31.436Z,83.90
2022-10-17T19:43:30.264Z,83.50
2022-10-17T19:46:01.816Z,83.70
2022-10-17T19:48:32.593Z,83.90
2022-10-17T19:51:00.513Z,83.90
2022-10-17T19:53:29.412Z,83.90
2022-10-17T19:55:57.533Z,83.80
2022-10-17T19:58:25.888Z,83.80
2022-10-17T20:00:58.228Z,83.70
2022-10-17T20:03:25.684Z,83.70
2022-10-17T20:05:53.094Z,83.60
2022-10-17T20:08:21.006Z,83.60
2022-10-17T20:10:48.098Z,84.40
2022-10-17T20:13:15.166Z,83.80
2022-10-17T20:15:42.307Z,83.60
2022-10-17T20:18:09.836Z,83.60
2022-10-17T20:20:37.801Z,83.50
2022-10-17T20:23:05.014Z,83.50
2022-10-17T20:25:34.520Z,83.50
2022-10-17T20:28:01.469Z,83.50
2022-10-17T20:30:28.386Z,83.40
2022-10-17T20:32:55.577Z,83.50
2022-10-17T20:35:22.988Z,83.60
2022-10-17T20:37:50.267Z,83.50
2022-10-17T20:40:34.173Z,83.50
2022-10-17T20:43:02.386Z,83.40
2022-10-17T20:45:43.741Z,83.40
2022-10-17T20:48:16.668Z,83.40
2022-10-17T20:50:44.442Z,83.30
2022-10-17T20:53:35.498Z,83.50
2022-10-17T20:56:04.732Z,83.50
2022-10-17T20:58:31.669Z,83.50
2022-10-17T21:00:58.607Z,83.50
2022-10-17T21:03:26.603Z,83.40
2022-10-17T21:05:53.577Z,83.40
2022-10-17T21:08:20.475Z,83.40
2022-10-17T21:10:47.383Z,83.20
2022-10-17T21:13:14.340Z,83.10
2022-10-17T21:15:41.244Z,82.90
2022-10-17T21:18:08.153Z,82.70
2022-10-17T21:20:35.101Z,82.60
2022-10-17T21:23:02.083Z,82.40
2022-10-17T21:25:29.040Z,82.20
2022-10-17T21:27:56.159Z,82.10
2022-10-17T21:30:23.673Z,82.00
2022-10-17T21:32:55.177Z,82.10
2022-10-17T21:35:22.416Z,82.20
2022-10-17T21:37:49.381Z,82.10
2022-10-17T21:40:16.406Z,82.00
2022-10-17T21:42:43.517Z,82.00
2022-10-17T21:45:15.662Z,82.00
2022-10-17T21:48:11.116Z,82.00
2022-10-17T21:50:34.266Z,82.00
2022-10-17T21:53:01.259Z,82.00
2022-10-17T21:55:28.304Z,81.90
2022-10-17T21:57:55.592Z,81.80
2022-10-17T22:00:22.800Z,81.70
2022-10-17T22:02:49.811Z,81.70
2022-10-17T22:05:16.700Z,81.70
2022-10-17T22:07:43.628Z,81.60
2022-10-17T22:10:10.607Z,81.50
2022-10-17T22:12:37.525Z,81.60
2022-10-17T22:15:04.909Z,81.60
2022-10-17T22:17:32.079Z,81.60
2022-10-17T22:19:59.128Z,81.60
2022-10-17T22:22:26.013Z,81.60
2022-10-17T22:24:52.903Z,82.40
2022-10-17T22:27:21.010Z,81.60
2022-10-17T22:29:47.888Z,81.60
2022-10-17T22:32:18.653Z,81.60
2022-10-17T22:34:48.502Z,81.60
2022-10-17T22:37:15.514Z,81.40
2022-10-17T22:39:42.423Z,81.50
2022-10-17T22:42:09.399Z,81.50
2022-10-17T22:44:36.431Z,81.50
2022-10-17T22:47:03.390Z,81.50
2022-10-17T22:49:32.184Z,81.50
2022-10-17T22:51:59.389Z,81.40
2022-10-17T22:54:26.325Z,81.40
2022-10-17T22:56:53.266Z,81.40
2022-10-17T22:59:20.242Z,81.40
2022-10-17T23:01:47.223Z,81.40
2022-10-17T23:04:14.205Z,81.40
2022-10-17T23:06:41.138Z,81.40
2022-10-17T23:09:08.057Z,81.40
2022-10-17T23:11:35.303Z,81.30
2022-10-17T23:14:02.216Z,81.30
2022-10-17T23:16:29.154Z,81.20
2022-10-17T23:18:57.767Z,81.30
2022-10-17T23:21:24.689Z,81.30
2022-10-17T23:23:51.596Z,81.30
2022-10-17T23:26:18.536Z,81.20
2022-10-17T23:28:45.839Z,81.20
2022-10-17T23:31:19.119Z,81.10
2022-10-17T23:33:47.948Z,81.10
2022-10-17T23:36:17.965Z,81.00
2022-10-17T23:38:46.219Z,80.90
2022-10-17T23:41:14.080Z,80.80
2022-10-17T23:43:41.728Z,80.80
2022-10-17T23:46:09.256Z,80.70
2022-10-17T23:48:37.421Z,80.70
2022-10-17T23:51:06.781Z,80.70
2022-10-17T23:53:33.816Z,80.60
2022-10-17T23:56:00.847Z,80.50
2022-10-17T23:58:27.816Z,80.50
